sensor_id;sensor_type;location;lat;lon;timestamp;temperature;humidity
24250;DHT22;12379;49.820;8.648;2024-01-06T00:01:00;5.50;99.90
24250;DHT22;12379;49.820;8.648;2024-01-06T00:03:26;5.50;99.90
24250;DHT22;12379;49.820;8.648;2024-01-06T00:05:51;5.50;99.90
24250;DHT22;12379;49.820;8.648;2024-01-06T00:08:17;5.50;99.90
24250;DHT22;12379;49.820;8.648;2024-01-06T00:10:43;5.50;99.90
24250;DHT22;12379;49.820;8.648;2024-01-06T00:13:09;5.50;99.90
24250;DHT22;12379;49.820;8.648;2024-01-06T00:15:35;5.40;99.90
24250;DHT22;12379;49.820;8.648;2024-01-06T00:18:00;5.40;99.90
24250;DHT22;12379;49.820;8.648;2024-01-06T00:20:26;5.30;99.90
24250;DHT22;12379;49.820;8.648;2024-01-06T00:22:51;5.40;99.90
24250;DHT22;12379;49.820;8.648;2024-01-06T00:25:17;5.40;99.90
24250;DHT22;12379;49.820;8.648;2024-01-06T00:27:42;5.40;99.90
24250;DHT22;12379;49.820;8.648;2024-01-06T00:30:08;5.30;99.90
24250;DHT22;12379;49.820;8.648;2024-01-06T00:32:34;5.40;99.90
24250;DHT22;12379;49.820;8.648;2024-01-06T00:34:59;5.30;99.90
24250;DHT22;12379;49.820;8.648;2024-01-06T00:37:25;5.30;99.90
24250;DHT22;12379;49.820;8.648;2024-01-06T00:39:50;5.30;99.90
24250;DHT22;12379;49.820;8.648;2024-01-06T00:42:16;5.20;99.90
24250;DHT22;12379;49.820;8.648;2024-01-06T00:44:41;5.20;99.90
24250;DHT22;12379;49.820;8.648;2024-01-06T00:47:07;5.10;99.90
24250;DHT22;12379;49.820;8.648;2024-01-06T00:49:32;5.10;99.90
24250;DHT22;12379;49.820;8.648;2024-01-06T00:51:58;5.20;99.90
24250;DHT22;12379;49.820;8.648;2024-01-06T00:54:23;5.30;99.90
24250;DHT22;12379;49.820;8.648;2024-01-06T00:56:49;5.40;99.90
24250;DHT22;12379;49.820;8.648;2024-01-06T00:59:14;5.50;99.90
24250;DHT22;12379;49.820;8.648;2024-01-06T01:01:40;5.60;99.90
24250;DHT22;12379;49.820;8.648;2024-01-06T01:04:05;5.60;99.90
24250;DHT22;12379;49.820;8.648;2024-01-06T01:06:31;5.70;99.90
24250;DHT22;12379;49.820;8.648;2024-01-06T01:08:56;5.70;99.90
24250;DHT22;12379;49.820;8.648;2024-01-06T01:11:22;5.70;99.90
24250;DHT22;12379;49.820;8.648;2024-01-06T01:13:48;5.80;99.90
24250;DHT22;12379;49.820;8.648;2024-01-06T01:16:13;5.80;99.90
24250;DHT22;12379;49.820;8.648;2024-01-06T01:18:39;5.70;99.90
24250;DHT22;12379;49.820;8.648;2024-01-06T01:21:04;5.70;99.90
24250;DHT22;12379;49.820;8.648;2024-01-06T01:23:30;5.80;99.90
24250;DHT22;12379;49.820;8.648;2024-01-06T01:25:55;5.90;99.90
24250;DHT22;12379;49.820;8.648;2024-01-06T01:28:21;6.00;99.90
24250;DHT22;12379;49.820;8.648;2024-01-06T01:30:47;6.00;99.90
24250;DHT22;12379;49.820;8.648;2024-01-06T01:33:12;6.00;99.90
24250;DHT22;12379;49.820;8.648;2024-01-06T01:35:38;6.00;99.90
24250;DHT22;12379;49.820;8.648;2024-01-06T01:38:03;6.00;99.90
24250;DHT22;12379;49.820;8.648;2024-01-06T01:40:29;6.00;99.90
24250;DHT22;12379;49.820;8.648;2024-01-06T01:42:55;5.90;99.90
24250;DHT22;12379;49.820;8.648;2024-01-06T01:45:20;5.90;99.90
24250;DHT22;12379;49.820;8.648;2024-01-06T01:47:46;5.90;99.90
24250;DHT22;12379;49.820;8.648;2024-01-06T01:50:12;5.90;99.90
24250;DHT22;12379;49.820;8.648;2024-01-06T01:52:39;6.00;99.90
24250;DHT22;12379;49.820;8.648;2024-01-06T01:55:05;6.00;99.90
24250;DHT22;12379;49.820;8.648;2024-01-06T01:57:31;5.80;99.90
24250;DHT22;12379;49.820;8.648;2024-01-06T01:59:57;5.80;99.90
24250;DHT22;12379;49.820;8.648;2024-01-06T02:02:22;5.80;99.90
24250;DHT22;12379;49.820;8.648;2024-01-06T02:04:48;5.90;99.90
24250;DHT22;12379;49.820;8.648;2024-01-06T02:07:14;5.90;99.90
24250;DHT22;12379;49.820;8.648;2024-01-06T02:09:39;5.80;99.90
24250;DHT22;12379;49.820;8.648;2024-01-06T02:12:05;5.90;99.90
24250;DHT22;12379;49.820;8.648;2024-01-06T02:14:31;5.90;99.90
24250;DHT22;12379;49.820;8.648;2024-01-06T02:16:58;6.00;99.90
24250;DHT22;12379;49.820;8.648;2024-01-06T02:19:24;6.00;99.90
24250;DHT22;12379;49.820;8.648;2024-01-06T02:21:53;6.00;99.90
24250;DHT22;12379;49.820;8.648;2024-01-06T02:24:19;5.90;99.90
24250;DHT22;12379;49.820;8.648;2024-01-06T02:26:45;5.90;99.90
24250;DHT22;12379;49.820;8.648;2024-01-06T02:29:10;5.90;99.90
24250;DHT22;12379;49.820;8.648;2024-01-06T02:31:36;6.00;99.90
24250;DHT22;12379;49.820;8.648;2024-01-06T02:34:02;5.90;99.90
24250;DHT22;12379;49.820;8.648;2024-01-06T02:36:27;5.90;99.90
24250;DHT22;12379;49.820;8.648;2024-01-06T02:38:53;6.00;99.90
24250;DHT22;12379;49.820;8.648;2024-01-06T02:41:18;6.10;99.90
24250;DHT22;12379;49.820;8.648;2024-01-06T02:43:44;6.10;99.90
24250;DHT22;12379;49.820;8.648;2024-01-06T02:46:09;6.10;99.90
24250;DHT22;12379;49.820;8.648;2024-01-06T02:48:35;6.10;99.90
24250;DHT22;12379;49.820;8.648;2024-01-06T02:51:00;6.10;99.90
24250;DHT22;12379;49.820;8.648;2024-01-06T02:53:26;6.10;99.90
24250;DHT22;12379;49.820;8.648;2024-01-06T02:55:51;6.00;99.90
24250;DHT22;12379;49.820;8.648;2024-01-06T02:58:17;6.00;99.90
24250;DHT22;12379;49.820;8.648;2024-01-06T03:00:42;6.10;99.90
24250;DHT22;12379;49.820;8.648;2024-01-06T03:03:08;6.10;99.90
24250;DHT22;12379;49.820;8.648;2024-01-06T03:05:33;6.00;99.90
24250;DHT22;12379;49.820;8.648;2024-01-06T03:07:59;6.10;99.90
24250;DHT22;12379;49.820;8.648;2024-01-06T03:10:25;6.00;99.90
24250;DHT22;12379;49.820;8.648;2024-01-06T03:12:51;6.00;99.90
24250;DHT22;12379;49.820;8.648;2024-01-06T03:15:16;6.10;99.90
24250;DHT22;12379;49.820;8.648;2024-01-06T03:17:42;6.10;99.90
24250;DHT22;12379;49.820;8.648;2024-01-06T03:20:08;6.20;99.90
24250;DHT22;12379;49.820;8.648;2024-01-06T03:22:34;6.20;99.90
24250;DHT22;12379;49.820;8.648;2024-01-06T03:25:00;6.20;99.90
24250;DHT22;12379;49.820;8.648;2024-01-06T03:27:25;6.20;99.90
24250;DHT22;12379;49.820;8.648;2024-01-06T03:29:51;6.00;99.90
24250;DHT22;12379;49.820;8.648;2024-01-06T03:32:16;6.10;99.90
24250;DHT22;12379;49.820;8.648;2024-01-06T03:34:42;6.10;99.90
24250;DHT22;12379;49.820;8.648;2024-01-06T03:37:08;6.20;99.90
24250;DHT22;12379;49.820;8.648;2024-01-06T03:39:33;6.20;99.90
24250;DHT22;12379;49.820;8.648;2024-01-06T03:42:00;6.20;99.90
24250;DHT22;12379;49.820;8.648;2024-01-06T03:44:25;6.30;99.90
24250;DHT22;12379;49.820;8.648;2024-01-06T03:46:56;6.30;99.90
24250;DHT22;12379;49.820;8.648;2024-01-06T03:49:23;6.20;99.90
24250;DHT22;12379;49.820;8.648;2024-01-06T03:51:48;6.20;99.90
24250;DHT22;12379;49.820;8.648;2024-01-06T03:54:14;6.20;99.90
24250;DHT22;12379;49.820;8.648;2024-01-06T03:56:40;6.10;99.90
24250;DHT22;12379;49.820;8.648;2024-01-06T03:59:05;6.00;99.90
24250;DHT22;12379;49.820;8.648;2024-01-06T04:01:31;6.10;99.90
24250;DHT22;12379;49.820;8.648;2024-01-06T04:04:03;6.10;99.90
24250;DHT22;12379;49.820;8.648;2024-01-06T04:06:29;6.10;99.90
24250;DHT22;12379;49.820;8.648;2024-01-06T04:08:57;6.10;99.90
24250;DHT22;12379;49.820;8.648;2024-01-06T04:11:22;6.10;99.90
24250;DHT22;12379;49.820;8.648;2024-01-06T04:13:48;6.10;99.90
24250;DHT22;12379;49.820;8.648;2024-01-06T04:16:14;6.00;99.90
24250;DHT22;12379;49.820;8.648;2024-01-06T04:18:39;6.00;99.90
24250;DHT22;12379;49.820;8.648;2024-01-06T04:21:05;6.10;99.90
24250;DHT22;12379;49.820;8.648;2024-01-06T04:23:31;6.10;99.90
24250;DHT22;12379;49.820;8.648;2024-01-06T04:25:56;6.10;99.90
24250;DHT22;12379;49.820;8.648;2024-01-06T04:28:22;6.10;99.90
24250;DHT22;12379;49.820;8.648;2024-01-06T04:30:47;6.20;99.90
24250;DHT22;12379;49.820;8.648;2024-01-06T04:33:13;6.20;99.90
24250;DHT22;12379;49.820;8.648;2024-01-06T04:35:39;6.20;99.90
24250;DHT22;12379;49.820;8.648;2024-01-06T04:38:04;6.10;99.90
24250;DHT22;12379;49.820;8.648;2024-01-06T04:40:30;6.10;99.90
24250;DHT22;12379;49.820;8.648;2024-01-06T04:42:55;6.10;99.90
24250;DHT22;12379;49.820;8.648;2024-01-06T04:45:21;6.10;99.90
24250;DHT22;12379;49.820;8.648;2024-01-06T04:47:49;6.10;99.90
24250;DHT22;12379;49.820;8.648;2024-01-06T04:50:15;6.10;99.90
24250;DHT22;12379;49.820;8.648;2024-01-06T04:52:41;5.90;99.90
24250;DHT22;12379;49.820;8.648;2024-01-06T04:55:06;5.90;99.90
24250;DHT22;12379;49.820;8.648;2024-01-06T04:57:32;6.00;99.90
24250;DHT22;12379;49.820;8.648;2024-01-06T04:59:57;6.10;99.90
24250;DHT22;12379;49.820;8.648;2024-01-06T05:02:23;6.00;99.90
24250;DHT22;12379;49.820;8.648;2024-01-06T05:04:49;6.00;99.90
24250;DHT22;12379;49.820;8.648;2024-01-06T05:07:15;6.00;99.90
24250;DHT22;12379;49.820;8.648;2024-01-06T05:09:40;6.00;99.90
24250;DHT22;12379;49.820;8.648;2024-01-06T05:12:06;6.10;99.90
24250;DHT22;12379;49.820;8.648;2024-01-06T05:14:31;6.20;99.90
24250;DHT22;12379;49.820;8.648;2024-01-06T05:16:57;6.20;99.90
24250;DHT22;12379;49.820;8.648;2024-01-06T05:19:22;6.20;99.90
24250;DHT22;12379;49.820;8.648;2024-01-06T05:21:48;6.10;99.90
24250;DHT22;12379;49.820;8.648;2024-01-06T05:24:14;6.20;99.90
24250;DHT22;12379;49.820;8.648;2024-01-06T05:26:39;6.10;99.90
24250;DHT22;12379;49.820;8.648;2024-01-06T05:29:05;6.10;99.90
24250;DHT22;12379;49.820;8.648;2024-01-06T05:31:31;6.00;99.90
24250;DHT22;12379;49.820;8.648;2024-01-06T05:33:56;6.10;99.90
24250;DHT22;12379;49.820;8.648;2024-01-06T05:36:22;6.20;99.90
24250;DHT22;12379;49.820;8.648;2024-01-06T05:38:47;6.10;99.90
24250;DHT22;12379;49.820;8.648;2024-01-06T05:41:13;6.00;99.90
24250;DHT22;12379;49.820;8.648;2024-01-06T05:43:38;6.00;99.90
24250;DHT22;12379;49.820;8.648;2024-01-06T05:46:04;6.20;99.90
24250;DHT22;12379;49.820;8.648;2024-01-06T05:48:29;6.20;99.90
24250;DHT22;12379;49.820;8.648;2024-01-06T05:50:55;6.20;99.90
24250;DHT22;12379;49.820;8.648;2024-01-06T05:53:21;6.30;99.90
24250;DHT22;12379;49.820;8.648;2024-01-06T05:55:47;6.30;99.90
24250;DHT22;12379;49.820;8.648;2024-01-06T05:58:12;6.30;99.90
24250;DHT22;12379;49.820;8.648;2024-01-06T06:00:38;6.20;99.90
24250;DHT22;12379;49.820;8.648;2024-01-06T06:03:04;6.20;99.90
24250;DHT22;12379;49.820;8.648;2024-01-06T06:05:30;6.30;99.90
24250;DHT22;12379;49.820;8.648;2024-01-06T06:07:58;6.30;99.90
24250;DHT22;12379;49.820;8.648;2024-01-06T06:10:24;6.30;99.90
24250;DHT22;12379;49.820;8.648;2024-01-06T06:12:55;6.40;99.90
24250;DHT22;12379;49.820;8.648;2024-01-06T06:15:21;6.30;99.90
24250;DHT22;12379;49.820;8.648;2024-01-06T06:17:46;6.30;99.90
24250;DHT22;12379;49.820;8.648;2024-01-06T06:20:12;6.30;99.90
24250;DHT22;12379;49.820;8.648;2024-01-06T06:22:37;6.30;99.90
24250;DHT22;12379;49.820;8.648;2024-01-06T06:25:03;6.20;99.90
24250;DHT22;12379;49.820;8.648;2024-01-06T06:27:29;6.20;99.90
24250;DHT22;12379;49.820;8.648;2024-01-06T06:29:55;6.30;99.90
24250;DHT22;12379;49.820;8.648;2024-01-06T06:32:21;6.20;99.90
24250;DHT22;12379;49.820;8.648;2024-01-06T06:34:47;6.20;99.90
24250;DHT22;12379;49.820;8.648;2024-01-06T06:37:12;6.20;99.90
24250;DHT22;12379;49.820;8.648;2024-01-06T06:39:38;6.20;99.90
24250;DHT22;12379;49.820;8.648;2024-01-06T06:42:04;6.30;99.90
24250;DHT22;12379;49.820;8.648;2024-01-06T06:44:30;6.20;99.90
24250;DHT22;12379;49.820;8.648;2024-01-06T06:46:56;6.20;99.90
24250;DHT22;12379;49.820;8.648;2024-01-06T06:49:22;6.20;99.90
24250;DHT22;12379;49.820;8.648;2024-01-06T06:51:47;6.20;99.90
24250;DHT22;12379;49.820;8.648;2024-01-06T06:54:14;6.20;99.90
24250;DHT22;12379;49.820;8.648;2024-01-06T06:56:41;6.20;99.90
24250;DHT22;12379;49.820;8.648;2024-01-06T06:59:07;6.30;99.90
24250;DHT22;12379;49.820;8.648;2024-01-06T07:01:33;6.20;99.90
24250;DHT22;12379;49.820;8.648;2024-01-06T07:03:59;6.10;99.90
24250;DHT22;12379;49.820;8.648;2024-01-06T07:06:25;6.20;99.90
24250;DHT22;12379;49.820;8.648;2024-01-06T07:08:50;6.30;99.90
24250;DHT22;12379;49.820;8.648;2024-01-06T07:11:16;6.30;99.90
24250;DHT22;12379;49.820;8.648;2024-01-06T07:13:44;6.30;99.90
24250;DHT22;12379;49.820;8.648;2024-01-06T07:16:10;6.20;99.90
24250;DHT22;12379;49.820;8.648;2024-01-06T07:18:37;6.20;99.90
24250;DHT22;12379;49.820;8.648;2024-01-06T07:21:04;6.20;99.90
24250;DHT22;12379;49.820;8.648;2024-01-06T07:23:31;6.20;99.90
24250;DHT22;12379;49.820;8.648;2024-01-06T07:25:57;6.10;99.90
24250;DHT22;12379;49.820;8.648;2024-01-06T07:28:23;6.00;99.90
24250;DHT22;12379;49.820;8.648;2024-01-06T07:30:49;6.00;99.90
24250;DHT22;12379;49.820;8.648;2024-01-06T07:33:14;6.00;99.90
24250;DHT22;12379;49.820;8.648;2024-01-06T07:35:40;6.10;99.90
24250;DHT22;12379;49.820;8.648;2024-01-06T07:38:09;6.10;99.90
24250;DHT22;12379;49.820;8.648;2024-01-06T07:40:36;6.20;99.90
24250;DHT22;12379;49.820;8.648;2024-01-06T07:43:01;6.20;99.90
24250;DHT22;12379;49.820;8.648;2024-01-06T07:45:27;6.30;99.90
24250;DHT22;12379;49.820;8.648;2024-01-06T07:47:52;6.30;99.90
24250;DHT22;12379;49.820;8.648;2024-01-06T07:50:18;6.30;99.90
24250;DHT22;12379;49.820;8.648;2024-01-06T07:52:46;6.40;99.90
24250;DHT22;12379;49.820;8.648;2024-01-06T07:55:12;6.30;99.90
24250;DHT22;12379;49.820;8.648;2024-01-06T07:57:37;6.30;99.90
24250;DHT22;12379;49.820;8.648;2024-01-06T08:00:04;6.30;99.90
24250;DHT22;12379;49.820;8.648;2024-01-06T08:02:29;6.20;99.90
24250;DHT22;12379;49.820;8.648;2024-01-06T08:04:55;6.40;99.90
24250;DHT22;12379;49.820;8.648;2024-01-06T08:07:21;6.30;99.90
24250;DHT22;12379;49.820;8.648;2024-01-06T08:09:47;6.40;99.90
24250;DHT22;12379;49.820;8.648;2024-01-06T08:12:14;6.50;99.90
24250;DHT22;12379;49.820;8.648;2024-01-06T08:14:40;6.60;99.90
24250;DHT22;12379;49.820;8.648;2024-01-06T08:17:05;6.60;99.90
24250;DHT22;12379;49.820;8.648;2024-01-06T08:19:31;6.60;99.90
24250;DHT22;12379;49.820;8.648;2024-01-06T08:21:58;6.60;99.90
24250;DHT22;12379;49.820;8.648;2024-01-06T08:24:24;6.50;99.90
24250;DHT22;12379;49.820;8.648;2024-01-06T08:26:50;6.60;99.90
24250;DHT22;12379;49.820;8.648;2024-01-06T08:29:16;6.40;99.90
24250;DHT22;12379;49.820;8.648;2024-01-06T08:31:44;6.40;99.90
24250;DHT22;12379;49.820;8.648;2024-01-06T08:34:10;6.50;99.90
24250;DHT22;12379;49.820;8.648;2024-01-06T08:36:35;6.50;99.90
24250;DHT22;12379;49.820;8.648;2024-01-06T08:39:01;6.50;99.90
24250;DHT22;12379;49.820;8.648;2024-01-06T08:41:29;6.50;99.90
24250;DHT22;12379;49.820;8.648;2024-01-06T08:43:55;6.60;99.90
24250;DHT22;12379;49.820;8.648;2024-01-06T08:46:20;6.60;99.90
24250;DHT22;12379;49.820;8.648;2024-01-06T08:48:46;6.70;99.90
24250;DHT22;12379;49.820;8.648;2024-01-06T08:51:11;6.60;99.90
24250;DHT22;12379;49.820;8.648;2024-01-06T08:53:37;6.60;99.90
24250;DHT22;12379;49.820;8.648;2024-01-06T08:56:03;6.50;99.90
24250;DHT22;12379;49.820;8.648;2024-01-06T08:58:29;6.50;99.90
24250;DHT22;12379;49.820;8.648;2024-01-06T09:00:54;6.50;99.90
24250;DHT22;12379;49.820;8.648;2024-01-06T09:03:20;6.60;99.90
24250;DHT22;12379;49.820;8.648;2024-01-06T09:05:52;6.70;99.90
24250;DHT22;12379;49.820;8.648;2024-01-06T09:08:21;6.70;99.90
24250;DHT22;12379;49.820;8.648;2024-01-06T09:10:47;6.70;99.90
24250;DHT22;12379;49.820;8.648;2024-01-06T09:13:13;6.70;99.90
24250;DHT22;12379;49.820;8.648;2024-01-06T09:15:38;6.70;99.90
24250;DHT22;12379;49.820;8.648;2024-01-06T09:18:04;6.70;99.90
24250;DHT22;12379;49.820;8.648;2024-01-06T09:20:31;6.70;99.90
24250;DHT22;12379;49.820;8.648;2024-01-06T09:22:57;7.10;99.90
24250;DHT22;12379;49.820;8.648;2024-01-06T09:25:22;7.40;99.90
24250;DHT22;12379;49.820;8.648;2024-01-06T09:27:50;7.50;99.90
24250;DHT22;12379;49.820;8.648;2024-01-06T09:30:16;7.60;99.90
24250;DHT22;12379;49.820;8.648;2024-01-06T09:32:42;7.50;99.90
24250;DHT22;12379;49.820;8.648;2024-01-06T09:35:10;7.60;99.90
24250;DHT22;12379;49.820;8.648;2024-01-06T09:37:36;7.60;99.90
24250;DHT22;12379;49.820;8.648;2024-01-06T09:40:01;7.40;99.90
24250;DHT22;12379;49.820;8.648;2024-01-06T09:42:27;7.30;99.90
24250;DHT22;12379;49.820;8.648;2024-01-06T09:44:53;7.10;99.90
24250;DHT22;12379;49.820;8.648;2024-01-06T09:47:18;7.20;99.90
24250;DHT22;12379;49.820;8.648;2024-01-06T09:49:49;7.20;99.90
24250;DHT22;12379;49.820;8.648;2024-01-06T09:52:17;7.30;99.90
24250;DHT22;12379;49.820;8.648;2024-01-06T09:54:52;7.20;99.90
24250;DHT22;12379;49.820;8.648;2024-01-06T09:57:18;7.00;99.90
24250;DHT22;12379;49.820;8.648;2024-01-06T09:59:45;7.10;99.90
24250;DHT22;12379;49.820;8.648;2024-01-06T10:02:14;7.10;99.90
24250;DHT22;12379;49.820;8.648;2024-01-06T10:04:40;7.10;99.90
24250;DHT22;12379;49.820;8.648;2024-01-06T10:07:06;7.00;99.90
24250;DHT22;12379;49.820;8.648;2024-01-06T10:09:32;7.00;99.90
24250;DHT22;12379;49.820;8.648;2024-01-06T10:11:58;6.90;99.90
24250;DHT22;12379;49.820;8.648;2024-01-06T10:14:25;6.90;99.90
24250;DHT22;12379;49.820;8.648;2024-01-06T10:16:53;6.90;99.90
24250;DHT22;12379;49.820;8.648;2024-01-06T10:19:19;6.70;99.90
24250;DHT22;12379;49.820;8.648;2024-01-06T10:21:46;6.70;99.90
24250;DHT22;12379;49.820;8.648;2024-01-06T10:24:12;6.80;99.90
24250;DHT22;12379;49.820;8.648;2024-01-06T10:26:38;6.70;99.90
24250;DHT22;12379;49.820;8.648;2024-01-06T10:29:06;6.80;99.90
24250;DHT22;12379;49.820;8.648;2024-01-06T10:31:31;6.90;99.90
24250;DHT22;12379;49.820;8.648;2024-01-06T10:33:58;6.90;99.90
24250;DHT22;12379;49.820;8.648;2024-01-06T10:36:25;6.90;99.90
24250;DHT22;12379;49.820;8.648;2024-01-06T10:38:52;6.80;99.90
24250;DHT22;12379;49.820;8.648;2024-01-06T10:41:23;6.80;99.90
24250;DHT22;12379;49.820;8.648;2024-01-06T10:43:56;6.90;99.90
24250;DHT22;12379;49.820;8.648;2024-01-06T10:46:29;7.00;99.90
24250;DHT22;12379;49.820;8.648;2024-01-06T10:48:57;6.90;99.90
24250;DHT22;12379;49.820;8.648;2024-01-06T10:51:27;6.70;99.90
24250;DHT22;12379;49.820;8.648;2024-01-06T10:53:53;6.70;99.90
24250;DHT22;12379;49.820;8.648;2024-01-06T10:56:27;6.70;99.90
24250;DHT22;12379;49.820;8.648;2024-01-06T10:58:56;6.90;99.90
24250;DHT22;12379;49.820;8.648;2024-01-06T11:01:23;7.00;99.90
24250;DHT22;12379;49.820;8.648;2024-01-06T11:03:53;7.00;99.90
24250;DHT22;12379;49.820;8.648;2024-01-06T11:06:20;7.10;99.90
24250;DHT22;12379;49.820;8.648;2024-01-06T11:09:11;7.10;99.90
24250;DHT22;12379;49.820;8.648;2024-01-06T11:11:39;7.30;99.90
24250;DHT22;12379;49.820;8.648;2024-01-06T11:14:26;7.40;99.90
24250;DHT22;12379;49.820;8.648;2024-01-06T11:16:57;7.50;99.90
24250;DHT22;12379;49.820;8.648;2024-01-06T11:19:42;7.80;99.90
24250;DHT22;12379;49.820;8.648;2024-01-06T11:22:49;8.00;99.90
24250;DHT22;12379;49.820;8.648;2024-01-06T11:25:18;8.10;99.90
24250;DHT22;12379;49.820;8.648;2024-01-06T11:27:49;8.00;99.90
24250;DHT22;12379;49.820;8.648;2024-01-06T11:30:27;8.10;99.90
24250;DHT22;12379;49.820;8.648;2024-01-06T11:32:58;7.90;99.90
24250;DHT22;12379;49.820;8.648;2024-01-06T11:35:36;7.60;99.90
24250;DHT22;12379;49.820;8.648;2024-01-06T11:38:06;7.80;99.90
24250;DHT22;12379;49.820;8.648;2024-01-06T11:40:40;7.90;99.90
24250;DHT22;12379;49.820;8.648;2024-01-06T11:43:20;7.90;99.90
24250;DHT22;12379;49.820;8.648;2024-01-06T11:45:58;7.90;99.90
24250;DHT22;12379;49.820;8.648;2024-01-06T11:51:14;8.10;99.90
24250;DHT22;12379;49.820;8.648;2024-01-06T11:53:49;8.40;99.90
24250;DHT22;12379;49.820;8.648;2024-01-06T11:56:24;8.50;99.90
24250;DHT22;12379;49.820;8.648;2024-01-06T11:58:50;8.20;99.90
24250;DHT22;12379;49.820;8.648;2024-01-06T12:01:22;8.30;99.90
24250;DHT22;12379;49.820;8.648;2024-01-06T12:04:02;8.50;99.90
24250;DHT22;12379;49.820;8.648;2024-01-06T12:06:51;8.50;99.90
24250;DHT22;12379;49.820;8.648;2024-01-06T12:10:08;8.70;99.90
24250;DHT22;12379;49.820;8.648;2024-01-06T12:12:39;8.70;99.90
24250;DHT22;12379;49.820;8.648;2024-01-06T12:15:05;8.50;99.90
24250;DHT22;12379;49.820;8.648;2024-01-06T12:17:31;8.50;99.90
24250;DHT22;12379;49.820;8.648;2024-01-06T12:19:57;8.40;99.90
24250;DHT22;12379;49.820;8.648;2024-01-06T12:22:23;8.10;99.90
24250;DHT22;12379;49.820;8.648;2024-01-06T12:24:51;8.10;99.90
24250;DHT22;12379;49.820;8.648;2024-01-06T12:27:17;7.90;99.90
24250;DHT22;12379;49.820;8.648;2024-01-06T12:29:44;7.70;99.90
24250;DHT22;12379;49.820;8.648;2024-01-06T12:32:10;7.60;99.90
24250;DHT22;12379;49.820;8.648;2024-01-06T12:34:39;7.40;99.90
24250;DHT22;12379;49.820;8.648;2024-01-06T12:37:06;7.40;99.90
24250;DHT22;12379;49.820;8.648;2024-01-06T12:39:33;7.50;99.90
24250;DHT22;12379;49.820;8.648;2024-01-06T12:41:58;7.40;99.90
24250;DHT22;12379;49.820;8.648;2024-01-06T12:44:29;7.30;99.90
24250;DHT22;12379;49.820;8.648;2024-01-06T12:47:08;7.40;99.90
24250;DHT22;12379;49.820;8.648;2024-01-06T12:49:37;7.40;99.90
24250;DHT22;12379;49.820;8.648;2024-01-06T12:52:03;7.40;99.90
24250;DHT22;12379;49.820;8.648;2024-01-06T12:54:29;7.50;99.90
24250;DHT22;12379;49.820;8.648;2024-01-06T12:56:55;7.40;99.90
24250;DHT22;12379;49.820;8.648;2024-01-06T12:59:20;7.60;99.90
24250;DHT22;12379;49.820;8.648;2024-01-06T13:01:46;7.70;99.90
24250;DHT22;12379;49.820;8.648;2024-01-06T13:04:15;7.70;99.90
24250;DHT22;12379;49.820;8.648;2024-01-06T13:06:40;7.60;99.90
24250;DHT22;12379;49.820;8.648;2024-01-06T13:09:06;7.60;99.90
24250;DHT22;12379;49.820;8.648;2024-01-06T13:11:34;7.40;99.90
24250;DHT22;12379;49.820;8.648;2024-01-06T13:14:02;7.50;99.90
24250;DHT22;12379;49.820;8.648;2024-01-06T13:16:27;7.50;99.90
24250;DHT22;12379;49.820;8.648;2024-01-06T13:18:53;7.70;99.90
24250;DHT22;12379;49.820;8.648;2024-01-06T13:21:18;7.80;99.90
24250;DHT22;12379;49.820;8.648;2024-01-06T13:23:44;7.70;99.90
24250;DHT22;12379;49.820;8.648;2024-01-06T13:26:10;7.80;99.90
24250;DHT22;12379;49.820;8.648;2024-01-06T13:28:35;7.60;99.90
24250;DHT22;12379;49.820;8.648;2024-01-06T13:31:01;7.70;99.90
24250;DHT22;12379;49.820;8.648;2024-01-06T13:33:26;7.60;99.90
24250;DHT22;12379;49.820;8.648;2024-01-06T13:35:52;7.60;99.90
24250;DHT22;12379;49.820;8.648;2024-01-06T13:38:17;7.60;99.90
24250;DHT22;12379;49.820;8.648;2024-01-06T13:40:43;7.60;99.90
24250;DHT22;12379;49.820;8.648;2024-01-06T13:43:09;7.70;99.90
24250;DHT22;12379;49.820;8.648;2024-01-06T13:45:41;7.50;99.90
24250;DHT22;12379;49.820;8.648;2024-01-06T13:48:07;7.70;99.90
24250;DHT22;12379;49.820;8.648;2024-01-06T13:50:32;7.70;99.90
24250;DHT22;12379;49.820;8.648;2024-01-06T13:52:58;7.60;99.90
24250;DHT22;12379;49.820;8.648;2024-01-06T13:55:24;7.50;99.90
24250;DHT22;12379;49.820;8.648;2024-01-06T13:57:50;7.60;99.90
24250;DHT22;12379;49.820;8.648;2024-01-06T14:00:15;7.60;99.90
24250;DHT22;12379;49.820;8.648;2024-01-06T14:02:44;7.70;99.90
24250;DHT22;12379;49.820;8.648;2024-01-06T14:05:12;7.70;99.90
24250;DHT22;12379;49.820;8.648;2024-01-06T14:07:38;7.80;99.90
24250;DHT22;12379;49.820;8.648;2024-01-06T14:10:05;7.80;99.90
24250;DHT22;12379;49.820;8.648;2024-01-06T14:12:32;7.80;99.90
24250;DHT22;12379;49.820;8.648;2024-01-06T14:14:57;7.70;99.90
24250;DHT22;12379;49.820;8.648;2024-01-06T14:17:24;7.50;99.90
24250;DHT22;12379;49.820;8.648;2024-01-06T14:19:49;7.50;99.90
24250;DHT22;12379;49.820;8.648;2024-01-06T14:22:15;7.50;99.90
24250;DHT22;12379;49.820;8.648;2024-01-06T14:24:40;7.40;99.90
24250;DHT22;12379;49.820;8.648;2024-01-06T14:27:06;7.30;99.90
24250;DHT22;12379;49.820;8.648;2024-01-06T14:29:32;7.30;99.90
24250;DHT22;12379;49.820;8.648;2024-01-06T14:31:57;7.40;99.90
24250;DHT22;12379;49.820;8.648;2024-01-06T14:34:23;7.40;99.90
24250;DHT22;12379;49.820;8.648;2024-01-06T14:36:50;7.40;99.90
24250;DHT22;12379;49.820;8.648;2024-01-06T14:39:16;7.50;99.90
24250;DHT22;12379;49.820;8.648;2024-01-06T14:41:41;7.60;99.90
24250;DHT22;12379;49.820;8.648;2024-01-06T14:44:08;7.60;99.90
24250;DHT22;12379;49.820;8.648;2024-01-06T14:46:33;7.40;99.90
24250;DHT22;12379;49.820;8.648;2024-01-06T14:49:01;7.40;99.90
24250;DHT22;12379;49.820;8.648;2024-01-06T14:51:26;7.30;99.90
24250;DHT22;12379;49.820;8.648;2024-01-06T14:53:52;7.40;99.90
24250;DHT22;12379;49.820;8.648;2024-01-06T14:56:17;7.30;99.90
24250;DHT22;12379;49.820;8.648;2024-01-06T14:58:43;7.20;99.90
24250;DHT22;12379;49.820;8.648;2024-01-06T15:01:08;7.10;99.90
24250;DHT22;12379;49.820;8.648;2024-01-06T15:03:34;7.20;99.90
24250;DHT22;12379;49.820;8.648;2024-01-06T15:06:00;7.30;99.90
24250;DHT22;12379;49.820;8.648;2024-01-06T15:08:25;7.20;99.90
24250;DHT22;12379;49.820;8.648;2024-01-06T15:10:51;7.20;99.90
24250;DHT22;12379;49.820;8.648;2024-01-06T15:13:17;7.20;99.90
24250;DHT22;12379;49.820;8.648;2024-01-06T15:15:42;7.30;99.90
24250;DHT22;12379;49.820;8.648;2024-01-06T15:18:08;7.30;99.90
24250;DHT22;12379;49.820;8.648;2024-01-06T15:20:35;7.20;99.90
24250;DHT22;12379;49.820;8.648;2024-01-06T15:23:00;7.20;99.90
24250;DHT22;12379;49.820;8.648;2024-01-06T15:25:26;7.30;99.90
24250;DHT22;12379;49.820;8.648;2024-01-06T15:27:53;7.40;99.90
24250;DHT22;12379;49.820;8.648;2024-01-06T15:30:18;7.20;99.90
24250;DHT22;12379;49.820;8.648;2024-01-06T15:32:44;7.20;99.90
24250;DHT22;12379;49.820;8.648;2024-01-06T15:35:10;7.20;99.90
24250;DHT22;12379;49.820;8.648;2024-01-06T15:37:35;7.10;99.90
24250;DHT22;12379;49.820;8.648;2024-01-06T15:40:02;7.00;99.90
24250;DHT22;12379;49.820;8.648;2024-01-06T15:42:27;7.10;99.90
24250;DHT22;12379;49.820;8.648;2024-01-06T15:44:54;7.00;99.90